ADDS METAR Data INFO
IDs: Format: Raw Decoded Include TAF

Data at: 0750 UTC 20 Feb 2018

KCOD 200656Z AUTO 00000KT 9SM CLR M23/M26 A2986 RMK AO2 SNB19E54 SLP245 P0000 T12331256 411831233 FZRANO
KCOD 200556Z AUTO 00000KT 10SM OVC050 M21/M24 A2987 RMK AO2 SLP242 60000 T12111239 11200 21211 53010 FZRANO
KCOD 200456Z AUTO 05003KT 10SM OVC050 M21/M23 A2987 RMK AO2 SLP239 T12061233 FZRANO
KCOD 200356Z AUTO 03006KT 10SM OVC050 M21/M23 A2984 RMK AO2 SNE39 SLP232 P0000 T12061233 FZRANO
KCOD 200256Z AUTO 02006KT 8SM -SN FEW016 BKN055 M21/M23 A2984 RMK AO2 SLP233 P0000 60000 T12061233 51009 FZRANO
KCOD 200242Z AUTO 02006KT 2SM -SN SCT016 BKN055 M21/M23 A2984 RMK AO2 P0000 FZRANO
KCOD 200238Z AUTO 03008KT 1 3/4SM -SN BKN018 BKN055 M21/M23 A2984 RMK AO2 P0000 FZRANO
KCOD 200208Z AUTO 02007KT 2 1/2SM -SN BKN021 BKN030 OVC038 M21/M24 A2983 RMK AO2 P0000 FZRANO
KCOD 200156Z AUTO 02009KT 6SM -SN BKN030 BKN038 BKN048 M21/M24 A2984 RMK AO2 SNB28 SLP230 P0000 T12061239 FZRANO
KCOD 200056Z AUTO 02009KT 10SM CLR M21/M24 A2983 RMK AO2 SNE25 SLP227 P0000 T12061244 FZRANO
KCOD 200020Z AUTO 01010KT 4SM -SN FEW023 M20/M24 A2981 RMK AO2 P0000 FZRANO
KCOD 192356Z AUTO 02010KT 3SM -SN OVC023 M20/M23 A2981 RMK AO2 SLP215 P0000 60000 T12001233 11189 21200 51009 FZRANO
KCOD 192353Z AUTO 02009KT 2 1/2SM -SN OVC021 M20/M23 A2980 RMK AO2 P0000 FZRANO
KCOD 192332Z AUTO 02011KT 1 3/4SM -SN OVC021 M20/M23 A2980 RMK AO2 P0000 FZRANO
KCOD 192314Z AUTO 02011KT 3SM -SN BKN021 OVC027 M19/M23 A2978 RMK AO2 P0000 FZRANO
KCOD 192256Z AUTO 01010KT 2 1/2SM -SN BKN017 OVC024 M19/M23 A2978 RMK AO2 SLP203 P0000 T11941233 FZRANO
KCOD 192207Z AUTO 01010KT 2SM -SN BKN017 BKN023 BKN029 M19/M23 A2978 RMK AO2 P0000 FZRANO
KCOD 192156Z AUTO 02010KT 1SM -SN OVC015 M19/M23 A2977 RMK AO2 SLP201 P0000 T11941233 FZRANO
KCOD 192056Z AUTO 02013KT 1SM -SN OVC015 M19/M23 A2977 RMK AO2 SLP201 P0000 60000 T11941233 56007 FZRANO
KCOD 192030Z AUTO 02012KT 1SM -SN SCT012 BKN017 OVC025 M19/M23 A2977 RMK AO2 P0000 FZRANO
KCOD 192019Z AUTO 03010KT 3/4SM -SN SCT014 BKN019 BKN023 M19/M23 A2977 RMK AO2 P0000 FZRANO
KCOD 191956Z AUTO 03012KT 1 1/4SM -SN SCT013 BKN021 OVC027 M19/M23 A2978 RMK AO2 SLP201 P0000 T11941233 FZRANO
KCOD 191932Z AUTO 02010KT 1SM -SN OVC016 M19/M23 A2978 RMK AO2 P0000 FZRANO
KCOD 191856Z AUTO 02012KT 1 1/4SM -SN BKN022 OVC026 M19/M24 A2978 RMK AO2 SNB22 SLP200 P0000 T11941239 FZRANO
KCOD 191840Z AUTO 36013KT 2 1/2SM -SN FEW018 BKN024 OVC034 M19/M23 A2978 RMK AO2 VIS 2V4 SNB22 P0000 FZRANO
KCOD 191756Z AUTO 02013KT 10SM FEW070 M19/M24 A2980 RMK AO2 SLP209 60000 T11941244 11194 21211 53001 FZRANO
KCOD 191656Z AUTO 02013KT 10SM CLR M20/M24 A2979 RMK AO2 SLP202 T12001244 FZRANO
KCOD 191556Z AUTO 04008KT 10SM CLR M21/M24 A2980 RMK AO2 SNE47 SLP208 P0000 T12061244 FZRANO
KCOD 191456Z AUTO 03009KT 9SM -SN OVC043 M21/M24 A2979 RMK AO2 SLP205 P0000 60000 T12111239 53004 FZRANO
KCOD 191356Z AUTO 03009KT 10SM -SN OVC041 M21/M24 A2978 RMK AO2 SNE09B52 SLP199 P0000 T12061239 FZRANO
KCOD 191256Z AUTO 03009KT 9SM -SN OVC041 M20/M23 A2979 RMK AO2 SNB43 SLP200 P0000 T12001233 FZRANO
KCOD 191156Z AUTO 02008KT 10SM OVC041 M19/M23 A2978 RMK AO2 SNB07E48 SLP192 P0000 60000 T11941228 11183 21194 51004 FZRANO
KCOD 191056Z AUTO 03005KT 9SM OVC041 M19/M23 A2978 RMK AO2 SNE0959B28E53 SLP191 P0000 T11891228 FZRANO
KCOD 190956Z AUTO 04007KT 9SM -SN OVC041 M19/M23 A2977 RMK AO2 SLP187 P0000 T11891228 FZRANO
KCOD 190856Z AUTO 02010G17KT 10SM -SN OVC041 M19/M22 A2977 RMK AO2 SNB53 SLP182 P0000 60000 T11891222 58009 FZRANO
KCOD 190756Z AUTO 08004KT 10SM OVC043 M18/M22 A2980 RMK AO2 SLP192 T11831222 FZRANO
KCOD 190656Z AUTO VRB03KT 10SM OVC047 M18/M22 A2977 RMK AO2 SLP178 T11831217 400331189 FZRANO
KCOD 190556Z AUTO 32004KT 10SM CLR M19/M22 A2980 RMK AO2 SNE48 SLP190 P0000 60000 T11891222 11156 21189 51003 FZRANO
KCOD 190456Z AUTO 34006KT 5SM -SN CLR M18/M21 A2979 RMK AO2 SLP187 P0000 T11781211 FZRANO
KCOD 190421Z AUTO 33008KT 4SM -SN FEW025 M18/M21 A2980 RMK AO2 P0000 FZRANO
KCOD 190356Z AUTO 32011KT 5SM -SN OVC025 M17/M21 A2980 RMK AO2 SLP189 P0000 T11721206 FZRANO
KCOD 190256Z AUTO 32012G22KT 4SM -SN OVC025 M17/M20 A2979 RMK AO2 SLP180 P0000 60000 T11671200 51021 FZRANO
KCOD 190156Z AUTO 36013KT 5SM -SN OVC028 M17/M20 A2976 RMK AO2 SLP168 P0000 T11671200 FZRANO
KCOD 190131Z AUTO 36015KT 4SM -SN FEW020 BKN026 OVC034 M16/M20 A2976 RMK AO2 P0000 FZRANO
KCOD 190056Z AUTO 34009KT 7SM -SN FEW022 OVC036 M16/M19 A2976 RMK AO2 SLP161 P0000 T11611194 FZRANO
KCOD 190037Z AUTO 34011KT 6SM -SN FEW021 OVC036 M16/M19 A2973 RMK AO2 P0000 FZRANO
KCOD 190025Z AUTO 34009KT 3SM -SN BKN029 OVC034 M16/M19 A2975 RMK AO2 P0000 FZRANO
KCOD 182356Z AUTO 35010KT 2 1/2SM -SN SCT018 BKN024 OVC032 M16/M19 A2971 RMK AO2 SLP136 P0000 60000 T11561189 11117 21156 51010 FZRANO
KCOD 182330Z AUTO 33011KT 1 3/4SM -SN FEW013 OVC021 M16/M19 A2972 RMK AO2 P0000 FZRANO
KCOD 182320Z AUTO 34014KT 3SM -SN BKN015 BKN023 OVC031 M16/M19 A2972 RMK AO2 P0000 FZRANO
KCOD 182312Z AUTO 34010KT 1 1/4SM -SN BKN015 OVC023 M16/M18 A2973 RMK AO2 PRESRR P0000 FZRANO
KCOD 182256Z AUTO 35015KT 1SM -SN OVC013 M16/M18 A2970 RMK AO2 SLP120 P0000 T11561183 FZRANO
KCOD 182247Z AUTO 35013KT 1SM -SN OVC015 M15/M18 A2970 RMK AO2 P0000 FZRANO
KCOD 182226Z AUTO 36014G22KT 1 1/2SM -SN OVC017 M14/M18 A2969 RMK AO2 P0000 FZRANO
KCOD 182214Z AUTO 01015G21KT 1SM -SN BKN015 BKN019 BKN028 M14/M18 A2969 RMK AO2 P0000 FZRANO
KCOD 182156Z AUTO 35014G22KT 2 1/2SM -SN BKN026 M14/M18 A2968 RMK AO2 SLP111 P0000 T11441183 FZRANO
KCOD 182056Z AUTO 35016G19KT 9SM -SN BKN026 OVC033 M14/M18 A2967 RMK AO2 SLP106 P0000 60000 T11391178 53009 FZRANO
KCOD 182049Z AUTO 36015KT 8SM -SN FEW016 OVC030 M14/M17 A2966 RMK AO2 P0000 FZRANO
KCOD 182037Z AUTO 01016G21KT 9SM -SN FEW014 BKN018 OVC032 M14/M17 A2965 RMK AO2 P0000 FZRANO
KCOD 182023Z AUTO 01013G21KT 2SM -SN SCT014 OVC020 M14/M17 A2966 RMK AO2 P0000 FZRANO
KCOD 182007Z AUTO 36016G23KT 1SM -SN SCT013 OVC022 M13/M17 A2965 RMK AO2 P0000 FZRANO
KCOD 181956Z AUTO 35018G24KT 2SM -SN BKN019 OVC025 M13/M17 A2964 RMK AO2 VIS 1 1/4V3 SLP086 P0000 T11331167 FZRANO
KCOD 181952Z AUTO 36017G21KT 2SM -SN BKN019 OVC025 M13/M17 A2964 RMK AO2 VIS 1 3/4V3 P0000 FZRANO